Time;durP1;ratioP1;P1;durP2;ratioP2;P2;SDS_P1;SDS_P2;PMS_P1;PMS_P2;Temp;Humidity;BMP_temperature;BMP_pressure;BME280_temperature;BME280_humidity;BME280_pressure;Samples;Min_cycle;Max_cycle;Signal;HPM_P1;HPM_P2
2022/08/11 00:01:25;;;;;;;5.93;3.35;;;;;;;;;;5047578;28;20033;-66
2022/08/11 00:03:54;;;;;;;6.53;2.17;;;;;;;;;;5041072;28;20054;-69
2022/08/11 00:06:27;;;;;;;4.67;2.67;;;;;;;;;;5048989;28;20021;-69
2022/08/11 00:08:53;;;;;;;5.70;2.50;;;;;;;;;;5045794;28;20283;-67
2022/08/11 00:11:19;;;;;;;5.47;2.67;;;;;;;;;;5043494;28;20350;-68
2022/08/11 00:13:45;;;;;;;6.30;3.55;;;;;;;;;;5050399;28;20040;-71
2022/08/11 00:16:12;;;;;;;7.13;2.67;;;;;;;;;;5047999;28;20067;-71
2022/08/11 00:18:42;;;;;;;12.23;3.15;;;;;;;;;;5043344;28;20381;-69
2022/08/11 00:21:08;;;;;;;4.10;2.95;;;;;;;;;;5053134;28;20051;-69
2022/08/11 00:23:38;;;;;;;8.25;2.83;;;;;;;;;;5047004;28;20477;-67
2022/08/11 00:26:05;;;;;;;6.07;2.78;;;;;;;;;;5046813;28;20404;-71
2022/08/11 00:28:31;;;;;;;7.50;2.50;;;;;;;;;;5047902;28;20396;-67
2022/08/11 00:31:20;;;;;;;5.32;2.65;;;;;;;;;;5045104;28;20032;-67
2022/08/11 00:33:46;;;;;;;6.95;2.80;;;;;;;;;;5034808;28;20052;-69
2022/08/11 00:36:14;;;;;;;8.55;2.67;;;;;;;;;;5041022;28;20381;-66
2022/08/11 00:38:40;;;;;;;5.15;2.97;;;;;;;;;;5045515;28;20032;-66
2022/08/11 00:41:14;;;;;;;6.40;2.80;;;;;;;;;;5045764;28;20032;-68
2022/08/11 00:43:46;;;;;;;5.95;2.65;;;;;;;;;;5049011;28;20033;-70
2022/08/11 00:46:30;;;;;;;5.22;3.25;;;;;;;;;;5044286;28;20032;-70
2022/08/11 00:48:58;;;;;;;8.98;3.50;;;;;;;;;;5043627;28;20052;-69
2022/08/11 00:51:29;;;;;;;8.85;2.92;;;;;;;;;;5042691;28;20025;-67
2022/08/11 00:54:10;;;;;;;5.70;3.03;;;;;;;;;;5045494;28;20051;-70
2022/08/11 00:56:48;;;;;;;5.43;2.58;;;;;;;;;;5042774;28;20516;-68
2022/08/11 00:59:13;;;;;;;9.38;3.05;;;;;;;;;;5042487;28;20029;-69
2022/08/11 01:01:47;;;;;;;5.68;2.60;;;;;;;;;;5043500;28;20033;-70
2022/08/11 01:04:27;;;;;;;6.30;3.03;;;;;;;;;;5045399;28;20542;-69
2022/08/11 01:06:53;;;;;;;5.10;2.95;;;;;;;;;;5043897;28;20104;-68
2022/08/11 01:09:18;;;;;;;6.57;2.97;;;;;;;;;;5040674;28;20116;-69
2022/08/11 01:11:44;;;;;;;8.13;3.13;;;;;;;;;;5043791;28;20267;-70
2022/08/11 01:14:18;;;;;;;9.93;3.45;;;;;;;;;;5042505;28;20276;-70
2022/08/11 01:17:02;;;;;;;8.18;3.40;;;;;;;;;;5042581;28;20024;-70
2022/08/11 01:19:30;;;;;;;5.40;3.47;;;;;;;;;;5039111;28;20020;-70
2022/08/11 01:22:01;;;;;;;6.28;3.28;;;;;;;;;;5051484;28;20082;-67
2022/08/11 01:24:44;;;;;;;6.38;3.33;;;;;;;;;;5043203;28;20032;-69
2022/08/11 01:27:28;;;;;;;6.05;3.17;;;;;;;;;;5045307;28;20036;-70
2022/08/11 01:29:56;;;;;;;5.82;3.75;;;;;;;;;;5047611;28;20025;-70
2022/08/11 01:32:40;;;;;;;12.07;3.00;;;;;;;;;;5050393;28;20033;-70
2022/08/11 01:35:23;;;;;;;4.60;3.03;;;;;;;;;;5040941;28;20017;-70
2022/08/11 01:37:58;;;;;;;8.27;2.88;;;;;;;;;;5048232;28;20549;-69
2022/08/11 01:40:26;;;;;;;8.18;3.40;;;;;;;;;;5044224;28;20440;-69
2022/08/11 01:45:57;;;;;;;5.97;3.33;;;;;;;;;;5048456;28;20016;-70
2022/08/11 01:48:34;;;;;;;8.48;3.45;;;;;;;;;;5046393;28;20021;-70
2022/08/11 01:51:18;;;;;;;6.80;3.45;;;;;;;;;;5045768;28;20067;-69
2022/08/11 01:53:51;;;;;;;5.18;3.38;;;;;;;;;;5046908;28;20029;-69
2022/08/11 01:56:35;;;;;;;8.45;3.88;;;;;;;;;;5050758;28;20112;-70
2022/08/11 01:59:14;;;;;;;11.38;3.60;;;;;;;;;;5047809;28;20362;-70
2022/08/11 02:01:44;;;;;;;5.88;4.07;;;;;;;;;;5043238;28;20028;-70
2022/08/11 02:04:22;;;;;;;13.18;3.67;;;;;;;;;;5049676;28;20025;-68
2022/08/11 02:07:05;;;;;;;8.52;3.22;;;;;;;;;;5038217;28;20067;-68
2022/08/11 02:09:44;;;;;;;7.45;3.55;;;;;;;;;;5048924;28;20442;-68
2022/08/11 02:12:21;;;;;;;5.28;3.60;;;;;;;;;;5055087;28;20021;-68
2022/08/11 02:15:07;;;;;;;10.25;3.97;;;;;;;;;;5049797;28;20025;-68
2022/08/11 02:17:46;;;;;;;6.53;3.35;;;;;;;;;;5042895;28;20500;-68
2022/08/11 02:25:52;;;;;;;8.50;3.55;;;;;;;;;;5046714;28;20095;-68
2022/08/11 02:28:29;;;;;;;7.25;3.58;;;;;;;;;;5049568;28;20043;-68
2022/08/11 02:33:21;;;;;;;6.22;3.67;;;;;;;;;;5046880;28;20074;-68
2022/08/11 02:33:42;;;;;;;6.75;3.83;;;;;;;;;;5033303;28;20505;-68
2022/08/11 02:36:19;;;;;;;6.85;3.58;;;;;;;;;;5046615;28;20016;-68
2022/08/11 02:38:54;;;;;;;6.30;3.78;;;;;;;;;;5041938;28;20056;-68
2022/08/11 02:44:20;;;;;;;6.05;3.35;;;;;;;;;;5047788;28;20043;-68
2022/08/11 02:47:05;;;;;;;4.53;3.03;;;;;;;;;;5040645;28;20511;-68
2022/08/11 02:49:55;;;;;;;5.82;3.47;;;;;;;;;;5041012;28;20056;-68
2022/08/11 02:52:38;;;;;;;8.23;4.30;;;;;;;;;;5049162;28;20028;-68
2022/08/11 02:55:05;;;;;;;6.57;3.83;;;;;;;;;;5046106;28;20029;-68
2022/08/11 02:57:36;;;;;;;15.73;4.25;;;;;;;;;;5041252;28;20021;-68
2022/08/11 03:00:07;;;;;;;5.90;3.58;;;;;;;;;;5046797;28;20111;-68
2022/08/11 03:02:33;;;;;;;7.70;4.00;;;;;;;;;;5046981;28;20035;-68
2022/08/11 03:04:58;;;;;;;7.07;4.18;;;;;;;;;;5047659;28;20043;-68
2022/08/11 03:07:33;;;;;;;12.80;3.75;;;;;;;;;;5043463;28;20052;-69
2022/08/11 03:10:09;;;;;;;5.75;3.55;;;;;;;;;;5042841;28;20021;-68
2022/08/11 03:16:44;;;;;;;8.30;3.80;;;;;;;;;;5022830;28;20032;-68
2022/08/11 03:18:41;;;;;;;6.45;3.63;;;;;;;;;;5043987;28;20390;-68
2022/08/11 03:21:11;;;;;;;7.13;3.92;;;;;;;;;;5045300;28;20031;-68
2022/08/11 03:23:36;;;;;;;;;;;;;;;;;;5048459;28;20496;-68
2022/08/11 03:26:02;;;;;;;7.07;3.95;;;;;;;;;;5045326;28;20300;-69
2022/08/11 03:28:32;;;;;;;9.63;4.17;;;;;;;;;;5039668;28;20056;-68
2022/08/11 03:31:18;;;;;;;5.70;3.70;;;;;;;;;;5040077;28;20026;-68
2022/08/11 03:34:02;;;;;;;8.35;3.92;;;;;;;;;;5040899;28;20477;-68
2022/08/11 03:36:46;;;;;;;9.77;4.57;;;;;;;;;;5047512;28;20024;-68
2022/08/11 03:39:23;;;;;;;7.90;4.10;;;;;;;;;;5039354;28;20121;-68
2022/08/11 03:41:56;;;;;;;7.05;4.40;;;;;;;;;;5041400;28;20087;-68
2022/08/11 03:44:39;;;;;;;9.43;3.63;;;;;;;;;;5044966;28;20048;-68
2022/08/11 03:47:16;;;;;;;8.80;3.67;;;;;;;;;;5041422;28;20631;-68
2022/08/11 03:49:47;;;;;;;10.30;4.20;;;;;;;;;;5043304;28;20036;-68
2022/08/11 03:52:13;;;;;;;10.45;3.75;;;;;;;;;;5041006;28;20029;-68
2022/08/11 03:54:53;;;;;;;7.55;3.67;;;;;;;;;;5046014;28;20020;-68
2022/08/11 03:57:18;;;;;;;7.90;4.38;;;;;;;;;;5036428;28;20020;-68
2022/08/11 04:00:02;;;;;;;12.27;4.35;;;;;;;;;;5046096;28;20048;-69
2022/08/11 04:02:40;;;;;;;7.55;3.85;;;;;;;;;;5045956;28;20025;-68
2022/08/11 04:05:25;;;;;;;7.90;4.07;;;;;;;;;;5041082;28;20115;-69
2022/08/11 04:08:03;;;;;;;7.35;4.07;;;;;;;;;;5044019;28;20029;-69
2022/08/11 04:10:37;;;;;;;8.00;4.35;;;;;;;;;;5047395;28;20056;-69
2022/08/11 04:13:18;;;;;;;7.20;4.30;;;;;;;;;;5043767;28;20466;-67
2022/08/11 04:16:00;;;;;;;8.50;4.47;;;;;;;;;;5045708;28;20025;-68
2022/08/11 04:18:26;;;;;;;7.60;4.25;;;;;;;;;;5037365;28;20071;-69
2022/08/11 04:21:00;;;;;;;6.78;4.05;;;;;;;;;;5045031;28;20025;-68
2022/08/11 04:23:43;;;;;;;10.63;4.60;;;;;;;;;;5046068;28;20297;-69
2022/08/11 04:26:28;;;;;;;5.65;4.13;;;;;;;;;;5045304;28;20036;-69
2022/08/11 04:28:53;;;;;;;14.38;4.32;;;;;;;;;;5015430;28;20040;-68
2022/08/11 04:31:29;;;;;;;8.13;4.55;;;;;;;;;;5041982;28;20037;-69
2022/08/11 04:34:05;;;;;;;13.82;4.95;;;;;;;;;;5040150;28;20032;-68
2022/08/11 04:39:48;;;;;;;11.80;4.47;;;;;;;;;;5043213;28;20389;-68
2022/08/11 04:45:26;;;;;;;9.40;4.82;;;;;;;;;;5021587;28;20052;-68
2022/08/11 05:02:30;;;;;;;13.70;4.97;;;;;;;;;;5044538;28;20082;-69
2022/08/11 05:05:31;;;;;;;11.05;5.40;;;;;;;;;;5046158;28;20040;-69
2022/08/11 05:07:56;;;;;;;;;;;;;;;;;;5037633;28;20044;-68
2022/08/11 05:10:40;;;;;;;11.07;4.95;;;;;;;;;;5050875;28;19917;-68
2022/08/11 05:35:48;;;;;;;10.48;4.00;;;;;;;;;;5063206;22;20070;-66
2022/08/11 05:57:48;;;;;;;9.70;4.80;;;;;;;;;;5062458;28;20420;-66
2022/08/11 06:00:13;;;;;;;9.77;3.95;;;;;;;;;;5067660;28;20032;-66
2022/08/11 06:02:43;;;;;;;8.82;3.80;;;;;;;;;;5071327;28;20443;-67
2022/08/11 06:05:09;;;;;;;9.43;3.00;;;;;;;;;;5064678;28;20099;-66
2022/08/11 06:07:34;;;;;;;11.43;4.20;;;;;;;;;;5070251;28;20263;-66
2022/08/11 06:10:00;;;;;;;11.40;4.20;;;;;;;;;;5067766;28;20047;-67
2022/08/11 06:12:28;;;;;;;7.43;3.30;;;;;;;;;;5071193;28;20016;-66
2022/08/11 06:14:54;;;;;;;15.77;3.75;;;;;;;;;;5066719;28;20017;-67
2022/08/11 06:17:27;;;;;;;9.82;3.58;;;;;;;;;;5071586;28;20123;-67
2022/08/11 06:19:59;;;;;;;8.15;3.63;;;;;;;;;;5066644;28;20097;-68
2022/08/11 06:22:25;;;;;;;10.02;3.85;;;;;;;;;;5067022;28;20029;-67
2022/08/11 06:24:58;;;;;;;4.38;3.20;;;;;;;;;;5067943;28;20021;-68
2022/08/11 06:27:27;;;;;;;6.93;3.88;;;;;;;;;;5069758;28;20027;-68
2022/08/11 06:29:53;;;;;;;6.85;3.75;;;;;;;;;;5070746;28;20055;-68
2022/08/11 06:32:19;;;;;;;6.78;3.20;;;;;;;;;;5069834;28;20044;-68
2022/08/11 06:35:00;;;;;;;9.00;3.67;;;;;;;;;;5069738;28;20436;-67
2022/08/11 06:37:34;;;;;;;12.68;3.85;;;;;;;;;;5065648;28;20030;-67
2022/08/11 06:40:08;;;;;;;8.07;3.67;;;;;;;;;;5064675;28;20114;-67
2022/08/11 06:42:45;;;;;;;16.88;4.50;;;;;;;;;;5064433;28;20028;-68
2022/08/11 06:45:10;;;;;;;7.93;3.75;;;;;;;;;;5069032;28;20060;-68
2022/08/11 06:47:41;;;;;;;14.10;3.30;;;;;;;;;;5068145;28;20341;-68
2022/08/11 06:52:52;;;;;;;9.05;3.55;;;;;;;;;;5069280;28;20484;-67
2022/08/11 07:01:02;;;;;;;12.07;3.53;;;;;;;;;;5063461;28;20523;-67
2022/08/11 07:03:30;;;;;;;7.93;2.88;;;;;;;;;;5068839;28;20036;-67
2022/08/11 07:06:04;;;;;;;12.95;3.30;;;;;;;;;;5067717;28;20032;-66
2022/08/11 07:17:13;;;;;;;5.78;2.80;;;;;;;;;;5061306;28;20110;-67
2022/08/11 07:31:00;;;;;;;10.60;2.92;;;;;;;;;;5065714;28;20031;-69
2022/08/11 07:33:29;;;;;;;5.95;2.45;;;;;;;;;;5069401;28;20090;-68
2022/08/11 07:35:56;;;;;;;7.07;2.90;;;;;;;;;;5068779;28;20028;-66
2022/08/11 07:38:23;;;;;;;5.47;2.53;;;;;;;;;;5067495;28;20496;-66
2022/08/11 07:40:49;;;;;;;6.63;2.30;;;;;;;;;;5068427;28;20037;-66
2022/08/11 07:43:15;;;;;;;6.00;2.53;;;;;;;;;;5068284;28;20021;-66
2022/08/11 07:54:01;;;;;;;5.97;1.93;;;;;;;;;;5068248;28;20027;-66
2022/08/11 07:56:26;;;;;;;10.82;2.38;;;;;;;;;;5066436;28;20024;-68
2022/08/11 08:18:00;;;;;;;7.50;2.20;;;;;;;;;;5066560;28;20047;-67
2022/08/11 08:20:27;;;;;;;9.85;2.00;;;;;;;;;;5068508;28;20027;-67
2022/08/11 08:22:55;;;;;;;4.35;2.55;;;;;;;;;;5069016;28;20036;-67
2022/08/11 08:25:21;;;;;;;5.75;1.92;;;;;;;;;;5069049;28;20021;-67
2022/08/11 08:27:48;;;;;;;8.45;2.35;;;;;;;;;;5069820;28;20024;-68
2022/08/11 08:32:58;;;;;;;6.28;2.30;;;;;;;;;;5063031;28;20424;-68
2022/08/11 08:35:23;;;;;;;8.93;2.40;;;;;;;;;;5049105;28;20012;-67
2022/08/11 08:37:50;;;;;;;7.18;2.15;;;;;;;;;;5065118;28;20032;-67
2022/08/11 08:40:15;;;;;;;8.68;2.20;;;;;;;;;;5068365;28;20028;-69
2022/08/11 08:42:44;;;;;;;3.35;2.05;;;;;;;;;;5050234;28;20302;-68
2022/08/11 08:45:11;;;;;;;2.90;1.65;;;;;;;;;;5062943;28;20032;-67
2022/08/11 08:47:37;;;;;;;4.97;1.75;;;;;;;;;;5069985;28;20060;-67
2022/08/11 08:50:04;;;;;;;3.28;1.92;;;;;;;;;;5067555;28;20016;-67
2022/08/11 08:52:39;;;;;;;3.58;1.90;;;;;;;;;;5066090;28;20734;-67
2022/08/11 08:55:05;;;;;;;6.10;2.08;;;;;;;;;;5069377;28;20027;-67
2022/08/11 08:57:32;;;;;;;2.40;1.70;;;;;;;;;;5065863;28;20024;-67
2022/08/11 08:59:58;;;;;;;5.50;1.95;;;;;;;;;;5065769;28;20454;-67
2022/08/11 09:02:24;;;;;;;4.78;2.30;;;;;;;;;;5065263;28;20040;-67
2022/08/11 09:04:49;;;;;;;9.18;2.17;;;;;;;;;;5069722;28;20051;-67
2022/08/11 09:07:16;;;;;;;6.15;2.17;;;;;;;;;;5067097;28;20012;-67
2022/08/11 09:09:42;;;;;;;11.57;2.40;;;;;;;;;;5050258;28;20020;-67
2022/08/11 09:12:09;;;;;;;3.70;1.98;;;;;;;;;;5068643;28;20524;-67
2022/08/11 09:17:21;;;;;;;7.80;2.53;;;;;;;;;;5069105;28;20050;-67
2022/08/11 09:19:46;;;;;;;5.47;1.88;;;;;;;;;;5069608;28;20468;-66
2022/08/11 09:27:57;;;;;;;9.40;2.28;;;;;;;;;;5053334;28;20158;-67
2022/08/11 09:30:26;;;;;;;6.40;2.22;;;;;;;;;;5067651;28;20120;-67
2022/08/11 09:32:56;;;;;;;4.70;2.00;;;;;;;;;;5066533;28;20023;-67
2022/08/11 09:35:26;;;;;;;7.20;2.40;;;;;;;;;;5063452;28;20024;-68
2022/08/11 09:40:35;;;;;;;6.60;2.15;;;;;;;;;;5065927;28;20070;-68
2022/08/11 09:45:51;;;;;;;6.43;2.05;;;;;;;;;;5071468;28;20035;-66
2022/08/11 09:48:17;;;;;;;4.85;2.15;;;;;;;;;;5065612;28;20032;-66
2022/08/11 09:50:44;;;;;;;4.10;2.05;;;;;;;;;;5072729;28;20085;-67
2022/08/11 09:53:11;;;;;;;3.53;1.70;;;;;;;;;;5071632;28;20021;-69
2022/08/11 09:55:37;;;;;;;7.22;2.15;;;;;;;;;;5072536;28;20376;-67
2022/08/11 09:58:17;;;;;;;6.53;1.98;;;;;;;;;;5072874;28;20063;-67
2022/08/11 10:00:43;;;;;;;2.97;1.30;;;;;;;;;;5073055;28;20055;-68
2022/08/11 10:03:11;;;;;;;3.38;2.00;;;;;;;;;;5072144;28;20028;-67
2022/08/11 10:08:25;;;;;;;4.72;2.03;;;;;;;;;;5072483;28;20090;-67
2022/08/11 10:10:50;;;;;;;2.87;2.03;;;;;;;;;;5073038;28;20082;-67
2022/08/11 10:13:16;;;;;;;3.25;1.75;;;;;;;;;;5072601;28;20020;-67
2022/08/11 10:15:44;;;;;;;13.02;2.25;;;;;;;;;;5070977;28;20469;-67
2022/08/11 10:21:01;;;;;;;5.70;1.95;;;;;;;;;;5070657;28;20077;-68
2022/08/11 10:28:58;;;;;;;3.83;1.80;;;;;;;;;;5072312;28;20050;-69
2022/08/11 10:34:08;;;;;;;3.60;2.25;;;;;;;;;;5068687;28;20028;-68
2022/08/11 10:36:33;;;;;;;8.10;2.00;;;;;;;;;;5070793;28;20412;-68
2022/08/11 10:39:00;;;;;;;4.10;2.10;;;;;;;;;;5067138;28;20028;-68
2022/08/11 10:44:09;;;;;;;6.80;2.10;;;;;;;;;;5064992;28;20036;-68
2022/08/11 10:49:19;;;;;;;4.50;1.90;;;;;;;;;;5064195;28;20526;-68
2022/08/11 10:59:58;;;;;;;7.07;1.80;;;;;;;;;;5068820;28;20090;-68
2022/08/11 11:02:26;;;;;;;7.65;2.20;;;;;;;;;;5068883;28;20246;-68
2022/08/11 11:04:57;;;;;;;3.03;2.47;;;;;;;;;;5070117;28;20027;-69
2022/08/11 11:07:25;;;;;;;3.08;2.13;;;;;;;;;;5067837;28;20020;-69
2022/08/11 11:09:56;;;;;;;2.75;2.10;;;;;;;;;;5068085;28;20025;-67
2022/08/11 11:18:06;;;;;;;10.10;2.65;;;;;;;;;;5067922;28;20071;-68
2022/08/11 11:21:00;;;;;;;6.32;2.10;;;;;;;;;;5067577;28;20101;-67
2022/08/11 11:23:27;;;;;;;6.50;2.10;;;;;;;;;;5044824;28;20037;-67
2022/08/11 11:26:05;;;;;;;9.80;2.00;;;;;;;;;;5065893;28;20056;-68
2022/08/11 11:28:45;;;;;;;7.40;2.60;;;;;;;;;;5063156;28;20043;-67
2022/08/11 11:31:11;;;;;;;8.05;2.05;;;;;;;;;;5060064;28;20098;-68
2022/08/11 11:33:55;;;;;;;2.72;1.77;;;;;;;;;;5071067;28;20334;-67
2022/08/11 11:36:25;;;;;;;5.82;2.00;;;;;;;;;;5091130;22;20049;-65
2022/08/11 11:38:51;;;;;;;5.30;2.20;;;;;;;;;;5066955;28;20337;-66
2022/08/11 11:41:25;;;;;;;4.13;2.10;;;;;;;;;;5070523;28;20162;-67
2022/08/11 11:43:57;;;;;;;3.22;1.75;;;;;;;;;;5064825;28;20020;-66
2022/08/11 11:46:25;;;;;;;4.30;2.25;;;;;;;;;;5053000;28;20048;-65
2022/08/11 11:48:52;;;;;;;5.60;2.15;;;;;;;;;;5048617;28;20009;-66
2022/08/11 11:51:17;;;;;;;5.22;2.17;;;;;;;;;;5050648;28;20082;-67
2022/08/11 11:53:44;;;;;;;8.35;2.30;;;;;;;;;;5048681;28;20092;-65
2022/08/11 11:56:10;;;;;;;2.95;2.10;;;;;;;;;;5051305;28;20376;-67
2022/08/11 12:01:23;;;;;;;3.40;1.98;;;;;;;;;;5050329;28;20663;-66
2022/08/11 12:03:49;;;;;;;3.25;2.05;;;;;;;;;;5040916;28;20071;-66
2022/08/11 12:06:16;;;;;;;7.65;1.83;;;;;;;;;;5043522;28;20473;-66
2022/08/11 12:08:41;;;;;;;4.22;2.00;;;;;;;;;;5042027;28;20034;-66
2022/08/11 12:13:52;;;;;;;5.07;1.85;;;;;;;;;;5046883;28;20032;-66
2022/08/11 12:16:19;;;;;;;3.55;1.88;;;;;;;;;;5047955;28;20025;-66
2022/08/11 12:18:45;;;;;;;6.50;1.98;;;;;;;;;;5049299;28;20100;-66
2022/08/11 12:21:12;;;;;;;3.28;1.95;;;;;;;;;;5047243;28;20029;-66
2022/08/11 12:29:08;;;;;;;4.68;2.10;;;;;;;;;;5045709;28;20040;-66
2022/08/11 12:31:34;;;;;;;4.18;2.08;;;;;;;;;;5045429;28;20386;-65
2022/08/11 12:34:01;;;;;;;5.35;1.92;;;;;;;;;;5046850;28;20025;-65
2022/08/11 12:36:26;;;;;;;3.33;1.80;;;;;;;;;;5043296;28;20544;-67
2022/08/11 12:38:52;;;;;;;3.75;1.98;;;;;;;;;;5046341;28;20109;-66
2022/08/11 12:46:48;;;;;;;6.82;2.17;;;;;;;;;;5049666;28;20524;-66
2022/08/11 12:52:02;;;;;;;5.95;1.90;;;;;;;;;;5043836;28;20067;-66
2022/08/11 12:54:34;;;;;;;6.30;2.60;;;;;;;;;;5046943;28;20021;-67
2022/08/11 13:05:22;;;;;;;7.95;2.28;;;;;;;;;;5042230;28;20036;-67
2022/08/11 13:07:48;;;;;;;8.00;2.20;;;;;;;;;;5043629;28;20389;-66
2022/08/11 13:12:46;;;;;;;4.03;2.28;;;;;;;;;;5048989;28;20033;-66
2022/08/11 13:13:00;;;;;;;7.93;2.40;;;;;;;;;;5048345;28;20033;-66
2022/08/11 13:15:25;;;;;;;6.55;2.25;;;;;;;;;;5049491;28;20058;-67
2022/08/11 13:17:52;;;;;;;4.40;2.00;;;;;;;;;;5046861;28;20029;-65
2022/08/11 13:20:20;;;;;;;2.95;2.03;;;;;;;;;;5052439;28;20283;-66
2022/08/11 13:22:47;;;;;;;4.25;2.17;;;;;;;;;;5051392;28;20370;-67
2022/08/11 13:25:14;;;;;;;10.25;2.75;;;;;;;;;;5051856;28;20027;-66
2022/08/11 13:27:40;;;;;;;8.98;2.30;;;;;;;;;;5052127;28;20397;-66
2022/08/11 13:31:10;;;;;;;7.75;2.22;;;;;;;;;;5050251;28;20112;-66
2022/08/11 13:33:01;;;;;;;4.60;1.95;;;;;;;;;;5050865;28;20580;-66
2022/08/11 13:35:35;;;;;;;4.95;2.05;;;;;;;;;;5052241;28;20100;-66
2022/08/11 13:38:01;;;;;;;10.95;2.60;;;;;;;;;;5052798;28;20047;-66
2022/08/11 13:40:26;;;;;;;12.02;2.30;;;;;;;;;;5051710;28;20028;-66
2022/08/11 13:42:52;;;;;;;4.28;1.83;;;;;;;;;;5052985;28;20381;-66
2022/08/11 13:45:20;;;;;;;4.32;2.13;;;;;;;;;;5052560;28;20025;-66
2022/08/11 13:47:48;;;;;;;4.65;2.05;;;;;;;;;;5050087;28;20029;-66
2022/08/11 13:50:15;;;;;;;5.55;2.10;;;;;;;;;;5052014;28;20028;-66
2022/08/11 13:52:40;;;;;;;5.40;2.00;;;;;;;;;;5048013;28;20021;-66
2022/08/11 13:55:07;;;;;;;4.45;2.38;;;;;;;;;;5044729;28;20025;-65
2022/08/11 13:57:33;;;;;;;4.03;2.03;;;;;;;;;;5048379;28;20266;-66
2022/08/11 14:00:08;;;;;;;5.75;2.08;;;;;;;;;;5051461;28;20033;-66
2022/08/11 14:02:34;;;;;;;4.28;2.70;;;;;;;;;;5048843;28;20028;-66
2022/08/11 14:05:08;;;;;;;6.13;2.17;;;;;;;;;;5048801;28;20021;-66
2022/08/11 14:07:38;;;;;;;5.15;2.03;;;;;;;;;;5051329;28;20485;-66
2022/08/11 14:10:03;;;;;;;;;;;;;;;;;;5049607;28;20029;-66
2022/08/11 14:15:19;;;;;;;2.72;2.10;;;;;;;;;;5048592;28;20032;-66
2022/08/11 14:17:46;;;;;;;5.55;2.35;;;;;;;;;;5045988;28;20092;-66
2022/08/11 14:20:12;;;;;;;5.55;2.15;;;;;;;;;;5047693;28;20031;-66
2022/08/11 14:22:40;;;;;;;6.32;2.10;;;;;;;;;;5048848;28;20025;-66
2022/08/11 14:25:05;;;;;;;4.82;2.10;;;;;;;;;;5047855;28;20095;-66
2022/08/11 14:27:31;;;;;;;3.20;2.13;;;;;;;;;;5048188;28;20600;-66
2022/08/11 14:29:57;;;;;;;3.95;1.73;;;;;;;;;;5049126;28;20036;-66
2022/08/11 14:32:23;;;;;;;11.10;2.42;;;;;;;;;;5046479;28;20023;-66
2022/08/11 14:34:48;;;;;;;5.80;2.28;;;;;;;;;;5047252;28;20025;-66
2022/08/11 14:37:21;;;;;;;4.15;2.05;;;;;;;;;;5048446;28;20036;-66
2022/08/11 14:39:53;;;;;;;7.03;2.35;;;;;;;;;;5044965;28;20016;-66
2022/08/11 14:47:53;;;;;;;7.53;2.22;;;;;;;;;;5044260;28;20173;-66
2022/08/11 14:50:23;;;;;;;7.95;2.22;;;;;;;;;;5046886;28;20072;-66
2022/08/11 14:52:50;;;;;;;7.45;2.22;;;;;;;;;;5047032;28;20023;-66
2022/08/11 14:58:00;;;;;;;7.43;2.55;;;;;;;;;;5048067;28;20068;-66
2022/08/11 15:00:26;;;;;;;5.00;2.20;;;;;;;;;;5050955;28;20081;-66
2022/08/11 15:03:12;;;;;;;3.40;2.25;;;;;;;;;;5049738;28;20025;-66
2022/08/11 15:05:39;;;;;;;3.97;2.08;;;;;;;;;;5047192;28;20021;-66
2022/08/11 15:08:05;;;;;;;4.55;2.05;;;;;;;;;;5048242;28;20670;-65
2022/08/11 15:10:31;;;;;;;11.65;2.53;;;;;;;;;;5049140;28;20064;-66
2022/08/11 15:12:56;;;;;;;4.82;2.13;;;;;;;;;;5048502;28;20082;-66
2022/08/11 15:18:06;;;;;;;3.67;2.30;;;;;;;;;;5048593;28;20689;-66
2022/08/11 15:26:03;;;;;;;3.88;2.10;;;;;;;;;;5049590;28;20036;-66
2022/08/11 15:39:33;;;;;;;5.70;2.45;;;;;;;;;;5047101;28;20062;-69
2022/08/11 15:47:41;;;;;;;6.95;2.67;;;;;;;;;;5050276;28;20091;-71
2022/08/11 15:50:07;;;;;;;6.47;2.50;;;;;;;;;;5049340;28;20029;-71
2022/08/11 15:52:36;;;;;;;10.43;3.05;;;;;;;;;;5049278;28;20024;-67
2022/08/11 15:55:05;;;;;;;5.63;2.50;;;;;;;;;;5044106;28;20063;-68
2022/08/11 16:05:44;;;;;;;10.38;3.00;;;;;;;;;;5049516;28;20028;-67
2022/08/11 16:08:11;;;;;;;11.70;2.97;;;;;;;;;;5044234;28;20020;-67
2022/08/11 16:10:36;;;;;;;5.72;2.63;;;;;;;;;;5049616;28;20021;-67
2022/08/11 16:18:20;;;;;;;3.85;2.08;;;;;;;;;;5042424;28;20100;-67
2022/08/11 16:20:45;;;;;;;7.22;2.92;;;;;;;;;;5048345;28;20013;-67
2022/08/11 16:23:13;;;;;;;5.28;2.55;;;;;;;;;;5047441;28;20140;-67
2022/08/11 16:25:39;;;;;;;4.10;2.45;;;;;;;;;;5046456;28;20483;-67
2022/08/11 16:28:05;;;;;;;9.02;1.95;;;;;;;;;;5048283;28;20514;-67
2022/08/11 16:30:32;;;;;;;3.17;1.98;;;;;;;;;;5051328;28;20029;-67
2022/08/11 16:32:59;;;;;;;6.43;2.55;;;;;;;;;;5047620;28;20019;-67
2022/08/11 16:40:56;;;;;;;6.13;2.00;;;;;;;;;;5046894;28;20166;-67
2022/08/11 16:47:07;;;;;;;7.03;2.33;;;;;;;;;;5048510;28;20091;-67
2022/08/11 16:49:06;;;;;;;5.72;2.25;;;;;;;;;;5038776;28;20116;-67
2022/08/11 16:51:31;;;;;;;5.40;2.53;;;;;;;;;;5046857;28;20028;-67
2022/08/11 16:53:56;;;;;;;3.00;2.30;;;;;;;;;;5031257;28;20021;-67
2022/08/11 16:56:26;;;;;;;6.53;2.50;;;;;;;;;;5049815;28;20028;-67
2022/08/11 17:01:37;;;;;;;5.80;2.25;;;;;;;;;;5052434;28;20031;-68
2022/08/11 17:18:01;;;;;;;4.07;2.10;;;;;;;;;;5050317;28;20499;-67
2022/08/11 17:20:27;;;;;;;5.47;2.38;;;;;;;;;;5052091;28;20075;-67
2022/08/11 17:25:37;;;;;;;5.63;2.38;;;;;;;;;;5047926;28;20063;-67
2022/08/11 17:28:03;;;;;;;3.45;2.25;;;;;;;;;;5048860;28;20461;-67
2022/08/11 17:35:27;;;;;;;9.05;3.85;;;;;;;;;;5053385;28;20078;-67
2022/08/11 17:35:59;;;;;;;12.00;2.50;;;;;;;;;;5067758;22;20488;-67
2022/08/11 17:38:25;;;;;;;8.70;2.33;;;;;;;;;;5059695;28;20043;-67
2022/08/11 17:49:06;;;;;;;8.70;2.70;;;;;;;;;;5087475;28;20074;-67
2022/08/11 17:59:51;;;;;;;11.70;2.90;;;;;;;;;;5087350;28;20502;-69
2022/08/11 18:05:04;;;;;;;3.95;2.53;;;;;;;;;;5084700;28;20085;-66
